Pagrindinis puslapis
METAR-TAF:

METAR-TAF

Oro uostai :

Honningsvåg, Norvegija

platuma: 71-01N, ilguma: 025-59E, Aukštis: 1 m

Dabartinis oras

Ataskaita buvo paskelbta 27 minutes, ne 08:20 UTC
Vėjas 11 kt iš Vakarų
Temperatūra 4°C
Drėgmė 87%
Slėgis 989 hPa
Matomumas 10 km arba daugiau
Mažai debesys ne aukštis 600 ft
Su prošvaistėmis ne aukštis 1000 ft
Liūtis kaimynystėje

METAR: ENHV 290820Z 28011KT 9999 VCSH FEW006 BKN010 04/02 Q0989

Laikas: 09:47 (08:47 UTC)


TAF: trūkstamas

Orai ataskaitas ir orų prognozės (METAR, TAF).

turimą stotys yra geltonos ir raudonos taškus žemėlapyje.

Perkelti pele per norėdami pamatyti stoties vardą.

Tada spustelėkite, norėdami matyti oro stebėjimo ir prognozės.

Norėdami pakeisti žemėlapį: spustelėkite ant žalios mygtukų su juodo kryžiaus žemyn,; žalią mygtuką su brūkšneliu, jei norite nutolinti; arba žalių rodyklių gretimoms žemėlapius.


METAR-TAF: